Time;durP1;ratioP1;P1;durP2;ratioP2;P2;SDS_P1;SDS_P2;PMS_P1;PMS_P2;Temp;Humidity;BMP_temperature;BMP_pressure;BME280_temperature;BME280_humidity;BME280_pressure;Samples;Min_cycle;Max_cycle;Signal;HPM_P1;HPM_P2
2021/06/18 00:00:18;;;;;;;3.77;3.53;;;;;;;22.48;70.44;100191.63;5052106;28;20214;-70
2021/06/18 00:02:44;;;;;;;4.37;4.07;;;;;;;22.38;70.65;100186.06;5052068;28;20206;-70
2021/06/18 00:05:10;;;;;;;4.03;3.73;;;;;;;22.32;70.49;100184.88;5067281;28;20626;-71
2021/06/18 00:07:36;;;;;;;3.57;3.33;;;;;;;22.22;70.72;100183.66;5051837;28;20232;-70
2021/06/18 00:10:05;;;;;;;4.23;3.93;;;;;;;22.24;70.71;100184.88;5051942;28;20202;-70
2021/06/18 00:12:30;;;;;;;3.80;3.60;;;;;;;22.19;71.04;100170.56;5052004;28;20616;-70
2021/06/18 00:14:59;;;;;;;4.53;4.23;;;;;;;22.17;71.07;100179.31;5051836;28;20258;-70
2021/06/18 00:17:25;;;;;;;4.20;3.90;;;;;;;22.02;71.69;100176.88;5051503;28;20202;-70
2021/06/18 00:19:50;;;;;;;4.20;3.70;;;;;;;21.88;72.48;100178.44;5051646;28;20179;-70
2021/06/18 00:22:15;;;;;;;4.10;3.87;;;;;;;21.59;73.48;100180.34;5066954;28;20175;-70
2021/06/18 00:24:41;;;;;;;4.07;3.77;;;;;;;21.43;73.93;100174.34;5051173;28;20176;-70
2021/06/18 00:27:06;;;;;;;4.10;3.90;;;;;;;21.18;74.75;100174.19;5051357;28;20612;-70
2021/06/18 00:29:32;;;;;;;3.90;3.60;;;;;;;21.02;75.12;100177.31;5051111;28;20213;-70
2021/06/18 00:31:57;;;;;;;4.00;3.70;;;;;;;21.03;75.51;100172.53;5050829;28;20179;-70
2021/06/18 00:34:22;;;;;;;3.83;3.63;;;;;;;21.08;75.77;100180.50;5050888;28;20182;-70
2021/06/18 00:36:48;;;;;;;3.37;3.17;;;;;;;21.13;75.07;100165.47;5050733;28;20182;-70
2021/06/18 00:39:13;;;;;;;3.67;3.43;;;;;;;21.10;73.81;100178.13;5050949;28;20180;-70
2021/06/18 00:41:38;;;;;;;3.80;3.47;;;;;;;21.22;73.97;100169.44;5050872;28;20263;-70
2021/06/18 00:44:04;;;;;;;3.70;3.50;;;;;;;21.28;72.60;100176.28;5050828;28;20263;-70
2021/06/18 00:46:29;;;;;;;3.20;3.00;;;;;;;21.38;72.64;100175.50;5050399;28;20260;-70
2021/06/18 00:48:55;;;;;;;3.90;3.70;;;;;;;21.35;72.68;100173.50;5050858;28;20210;-70
2021/06/18 00:51:20;;;;;;;4.40;4.10;;;;;;;21.26;72.12;100177.81;5050785;28;20178;-70
2021/06/18 00:53:46;;;;;;;3.83;3.63;;;;;;;21.11;73.32;100201.94;5050809;28;20182;-70
2021/06/18 00:56:12;;;;;;;4.90;4.60;;;;;;;20.92;74.01;100208.56;5051023;28;20189;-70
2021/06/18 00:58:37;;;;;;;4.77;4.47;;;;;;;20.78;75.49;100214.03;5050479;28;20667;-70
2021/06/18 01:01:03;;;;;;;4.53;4.23;;;;;;;20.62;76.10;100207.97;5050336;28;20198;-70
2021/06/18 01:03:29;;;;;;;5.70;5.30;;;;;;;20.56;76.05;100210.31;5050493;28;20186;-70
2021/06/18 01:05:55;;;;;;;4.40;4.10;;;;;;;20.67;75.42;100205.63;5050532;28;20179;-70
2021/06/18 01:08:44;;;;;;;4.53;4.23;;;;;;;20.82;75.04;100197.41;5050230;28;20191;-70
2021/06/18 01:11:13;;;;;;;4.50;4.20;;;;;;;20.87;75.04;100186.75;5050422;28;20182;-70
2021/06/18 01:13:57;;;;;;;4.23;4.03;;;;;;;20.92;74.56;100183.59;5050054;28;20194;-71
2021/06/18 01:16:33;;;;;;;4.40;4.10;;;;;;;20.78;75.37;100181.50;5050161;28;20179;-70
2021/06/18 01:19:25;;;;;;;4.13;3.83;;;;;;;20.68;76.10;100187.78;5050379;28;20638;-70
2021/06/18 01:21:59;;;;;;;4.43;4.13;;;;;;;20.61;76.58;100178.63;5050044;28;20708;-70
2021/06/18 01:24:33;;;;;;;3.90;3.70;;;;;;;20.45;76.99;100174.16;5050156;28;20171;-70
2021/06/18 01:27:34;;;;;;;4.20;3.90;;;;;;;20.42;77.17;100171.34;5050038;28;20533;-70
2021/06/18 01:30:10;;;;;;;3.57;3.37;;;;;;;20.39;77.07;100178.41;5050096;28;20231;-70
2021/06/18 01:32:41;;;;;;;3.43;3.23;;;;;;;20.43;76.72;100189.59;5050445;28;20607;-70
2021/06/18 01:35:11;;;;;;;3.10;2.90;;;;;;;20.61;75.02;100187.75;5050142;28;20186;-70
2021/06/18 01:37:37;;;;;;;4.13;3.83;;;;;;;20.77;74.29;100179.13;5049807;28;20193;-70
2021/06/18 01:40:06;;;;;;;3.17;2.97;;;;;;;20.90;73.49;100177.63;5050128;28;20172;-70
2021/06/18 01:42:37;;;;;;;3.90;3.60;;;;;;;20.92;73.75;100180.00;5049958;28;20183;-70
2021/06/18 01:45:05;;;;;;;3.97;3.70;;;;;;;21.04;72.71;100186.03;5050219;28;20218;-70
2021/06/18 01:47:30;;;;;;;3.43;3.23;;;;;;;21.19;72.39;100192.47;5049782;28;20180;-70
2021/06/18 01:49:59;;;;;;;3.87;3.57;;;;;;;21.06;72.87;100194.78;5050208;28;20207;-70
2021/06/18 01:52:26;;;;;;;3.53;3.33;;;;;;;21.09;72.98;100184.88;5049953;28;20184;-70
2021/06/18 01:54:53;;;;;;;4.37;4.07;;;;;;;20.97;73.94;100190.75;5049899;28;20179;-70
2021/06/18 01:57:22;;;;;;;3.37;3.17;;;;;;;20.74;74.78;100180.69;5049678;28;20186;-70
2021/06/18 01:59:51;;;;;;;3.50;3.30;;;;;;;20.62;75.71;100183.00;5052113;28;20167;-70
2021/06/18 02:02:18;;;;;;;3.50;3.30;;;;;;;20.56;76.22;100188.13;5054009;28;20528;-70
2021/06/18 02:04:45;;;;;;;3.80;3.60;;;;;;;20.58;75.83;100182.19;5053799;28;20645;-70
2021/06/18 02:07:12;;;;;;;3.50;3.30;;;;;;;20.56;76.27;100187.31;5053617;28;20273;-70
2021/06/18 02:09:39;;;;;;;3.40;3.20;;;;;;;20.51;76.22;100180.13;5053648;28;20330;-70
2021/06/18 02:12:05;;;;;;;3.47;3.27;;;;;;;20.53;76.26;100179.75;5054167;28;20188;-70
2021/06/18 02:14:33;;;;;;;3.63;3.33;;;;;;;20.54;76.73;100184.09;5053741;28;20176;-70
2021/06/18 02:17:03;;;;;;;4.17;3.87;;;;;;;20.47;77.33;100184.88;5053376;28;20191;-70
2021/06/18 02:19:29;;;;;;;3.90;3.60;;;;;;;20.43;78.33;100187.63;5053582;28;20263;-70
2021/06/18 02:21:57;;;;;;;3.60;3.40;;;;;;;20.35;79.21;100185.13;5035631;28;20643;-70
2021/06/18 02:24:26;;;;;;;4.40;4.10;;;;;;;20.32;79.75;100189.47;5053299;28;20259;-70
2021/06/18 02:26:52;;;;;;;5.07;4.77;;;;;;;20.27;80.86;100192.59;5053249;28;20199;-70
2021/06/18 02:29:18;;;;;;;4.17;3.93;;;;;;;20.25;81.07;100186.63;5053398;28;20211;-70
2021/06/18 02:31:45;;;;;;;4.10;3.80;;;;;;;20.23;81.43;100200.06;5053404;28;20548;-70
2021/06/18 02:34:11;;;;;;;5.70;5.30;;;;;;;20.23;81.76;100202.06;5053147;28;20179;-70
2021/06/18 02:36:38;;;;;;;4.60;4.20;;;;;;;20.23;82.19;100202.84;5053092;28;20536;-70
2021/06/18 02:39:08;;;;;;;5.03;4.63;;;;;;;20.28;82.19;100207.28;5053147;28;20228;-70
2021/06/18 02:41:34;;;;;;;6.50;4.97;;;;;;;20.28;82.71;100199.75;5053172;28;20489;-70
2021/06/18 02:44:02;;;;;;;5.20;4.90;;;;;;;20.29;82.84;100197.78;5053059;28;20171;-70
2021/06/18 02:46:50;;;;;;;4.50;4.23;;;;;;;20.28;82.96;100196.19;5052798;28;20469;-70
2021/06/18 02:49:21;;;;;;;5.07;4.77;;;;;;;20.27;83.14;100202.91;5052919;28;20195;-70
2021/06/18 02:51:52;;;;;;;4.83;4.53;;;;;;;20.24;83.45;100210.00;5053218;28;20186;-70
2021/06/18 02:54:31;;;;;;;5.10;4.70;;;;;;;20.22;83.91;100201.25;5052803;28;20179;-70
2021/06/18 02:57:07;;;;;;;6.07;5.47;;;;;;;20.17;84.50;100196.88;5052733;28;20210;-71
2021/06/18 02:59:49;;;;;;;5.77;5.40;;;;;;;20.14;84.83;100199.63;5052835;28;20229;-70
2021/06/18 03:02:19;;;;;;;8.80;5.23;;;;;;;20.10;85.02;100202.34;5052779;28;20248;-70
2021/06/18 03:04:46;;;;;;;5.33;4.93;;;;;;;20.09;84.89;100208.25;5052725;28;20517;-70
2021/06/18 03:07:15;;;;;;;7.30;5.27;;;;;;;20.07;85.01;100208.66;5052548;28;20168;-70
2021/06/18 03:09:50;;;;;;;5.37;4.97;;;;;;;20.03;85.08;100210.59;5052357;28;20207;-70
2021/06/18 03:12:18;;;;;;;5.13;4.73;;;;;;;19.99;85.22;100203.44;5051772;28;20531;-70
2021/06/18 03:14:45;;;;;;;6.00;4.47;;;;;;;19.92;85.84;100204.94;5034609;28;20182;-70
2021/06/18 03:17:17;;;;;;;5.80;5.40;;;;;;;19.94;85.72;100207.31;5052185;28;20304;-70
2021/06/18 03:19:47;;;;;;;6.07;5.57;;;;;;;19.96;85.50;100198.63;5052621;28;20505;-70
2021/06/18 03:22:15;;;;;;;5.77;5.33;;;;;;;20.03;85.54;100210.59;5052395;28;20540;-70
2021/06/18 03:24:44;;;;;;;4.90;4.60;;;;;;;20.10;84.83;100212.63;5052237;28;20172;-70
2021/06/18 03:27:10;;;;;;;5.43;4.60;;;;;;;20.08;84.99;100210.25;5052121;28;20172;-70
2021/06/18 03:29:37;;;;;;;4.53;4.13;;;;;;;19.94;85.60;100200.97;5052234;28;20210;-70
2021/06/18 03:32:04;;;;;;;5.03;4.47;;;;;;;19.88;85.86;100197.78;5052210;28;20178;-70
2021/06/18 03:34:31;;;;;;;4.57;4.27;;;;;;;19.89;85.81;100204.91;5052025;28;20207;-70
2021/06/18 03:36:57;;;;;;;4.30;4.07;;;;;;;19.91;86.11;100203.34;5051918;28;20179;-70
2021/06/18 03:39:23;;;;;;;4.50;4.20;;;;;;;19.85;86.14;100204.88;5051891;28;20186;-70
2021/06/18 03:41:49;;;;;;;4.27;3.97;;;;;;;19.78;86.80;100209.53;5052181;28;20172;-70
2021/06/18 03:44:19;;;;;;;4.57;4.27;;;;;;;19.78;86.83;100198.44;5062128;28;20179;-71
2021/06/18 03:46:46;;;;;;;4.87;4.47;;;;;;;19.85;86.69;100204.88;5062702;28;20194;-71
2021/06/18 03:49:13;;;;;;;4.40;4.10;;;;;;;19.87;86.62;100208.06;5072461;28;20238;-70
2021/06/18 03:51:38;;;;;;;4.57;4.27;;;;;;;19.85;86.79;100209.63;5052562;28;20194;-70
2021/06/18 03:54:06;;;;;;;4.73;4.37;;;;;;;19.86;86.64;100217.56;5052383;28;20175;-70
2021/06/18 03:56:31;;;;;;;4.33;4.03;;;;;;;19.91;86.58;100208.09;5052223;28;20172;-70
2021/06/18 03:58:58;;;;;;;5.10;4.73;;;;;;;19.96;86.36;100210.50;5052570;28;20707;-71
2021/06/18 04:01:25;;;;;;;4.80;4.40;;;;;;;20.00;86.29;100219.69;5052136;28;20672;-70
2021/06/18 04:03:53;;;;;;;4.63;4.07;;;;;;;20.01;86.19;100212.16;5052147;28;20171;-70
2021/06/18 04:06:19;;;;;;;4.30;4.00;;;;;;;20.07;85.59;100214.19;5052043;28;20394;-70
2021/06/18 04:08:46;;;;;;;4.20;3.97;;;;;;;20.14;85.77;100214.28;5051985;28;20341;-71
2021/06/18 04:11:11;;;;;;;5.20;4.80;;;;;;;20.19;85.39;100213.13;5052107;28;20172;-71
2021/06/18 04:13:37;;;;;;;4.13;3.87;;;;;;;20.24;85.06;100209.19;5051932;28;20198;-70
2021/06/18 04:16:06;;;;;;;5.10;4.70;;;;;;;20.29;84.85;100208.88;5051847;28;20236;-70
2021/06/18 04:18:34;;;;;;;4.43;4.13;;;;;;;20.32;84.60;100205.31;5051803;28;20182;-71
2021/06/18 04:21:04;;;;;;;4.57;4.23;;;;;;;20.33;84.53;100207.72;5033727;28;20171;-71
2021/06/18 04:23:29;;;;;;;4.53;4.23;;;;;;;20.40;84.18;100204.22;5051465;28;20178;-71
2021/06/18 04:25:56;;;;;;;4.37;4.07;;;;;;;20.44;84.26;100205.06;5051918;28;20558;-71
2021/06/18 04:28:22;;;;;;;4.37;4.03;;;;;;;20.49;83.82;100201.91;5051518;28;20690;-71
2021/06/18 04:30:47;;;;;;;4.60;4.20;;;;;;;20.54;83.34;100201.56;5051735;28;20182;-71
2021/06/18 04:33:13;;;;;;;4.87;4.47;;;;;;;20.61;83.23;100198.84;5051725;28;20174;-71
2021/06/18 04:35:38;;;;;;;4.40;4.10;;;;;;;20.67;82.86;100197.28;5052523;28;20630;-71
2021/06/18 04:38:04;;;;;;;4.60;4.30;;;;;;;20.76;81.88;100203.31;5052885;28;20167;-71
2021/06/18 04:40:29;;;;;;;5.03;4.63;;;;;;;20.82;81.61;100206.53;5051541;28;20175;-71
2021/06/18 04:42:55;;;;;;;4.70;4.40;;;;;;;20.94;81.56;100197.06;5051352;28;20739;-71
2021/06/18 04:45:21;;;;;;;4.43;4.07;;;;;;;21.09;81.01;100207.09;5051300;28;20718;-71
2021/06/18 04:47:47;;;;;;;4.87;4.47;;;;;;;21.22;80.43;100215.91;5033364;28;20189;-71
2021/06/18 04:50:12;;;;;;;3.90;3.60;;;;;;;21.31;79.71;100217.19;5051231;28;20531;-71
2021/06/18 04:52:41;;;;;;;4.70;4.40;;;;;;;21.36;79.85;100213.22;5051120;28;20644;-71
2021/06/18 04:55:09;;;;;;;5.17;4.70;;;;;;;21.40;78.90;100208.47;5051205;28;20168;-71
2021/06/18 04:57:34;;;;;;;4.93;4.60;;;;;;;21.43;78.77;100204.13;5050924;28;20659;-71
2021/06/18 05:00:00;;;;;;;5.20;4.70;;;;;;;21.45;79.32;100202.53;5051169;28;20182;-71
2021/06/18 05:02:25;;;;;;;4.47;4.17;;;;;;;21.44;79.02;100208.50;5051042;28;20173;-71
2021/06/18 05:04:50;;;;;;;4.27;3.87;;;;;;;21.47;79.23;100207.72;5051055;28;20181;-71
2021/06/18 05:07:16;;;;;;;4.63;4.33;;;;;;;21.51;79.31;100211.28;5050914;28;20244;-70
2021/06/18 05:09:41;;;;;;;4.30;4.00;;;;;;;21.58;78.14;100220.47;5050882;28;20201;-71
2021/06/18 05:12:07;;;;;;;4.80;4.50;;;;;;;21.65;76.68;100225.25;5050922;28;20176;-72
2021/06/18 05:14:32;;;;;;;4.77;4.47;;;;;;;21.76;76.56;100231.66;5050842;28;20179;-71
2021/06/18 05:16:57;;;;;;;5.60;5.10;;;;;;;21.89;77.13;100224.53;5050662;28;20185;-72
2021/06/18 05:19:23;;;;;;;4.80;4.50;;;;;;;21.96;77.32;100221.75;5050705;28;20215;-72
2021/06/18 05:21:48;;;;;;;4.80;4.23;;;;;;;21.94;76.13;100226.94;5050608;28;20571;-72
2021/06/18 05:24:13;;;;;;;4.23;3.93;;;;;;;21.97;76.51;100230.91;5052287;28;20538;-71
2021/06/18 05:26:39;;;;;;;4.80;4.40;;;;;;;22.04;77.56;100221.78;5068209;28;20246;-71
2021/06/18 05:29:04;;;;;;;5.10;4.70;;;;;;;22.07;76.28;100221.81;5060706;28;20217;-71
2021/06/18 05:31:30;;;;;;;5.10;4.70;;;;;;;22.14;75.61;100219.06;5051191;28;20175;-71
2021/06/18 05:33:55;;;;;;;5.30;4.93;;;;;;;22.24;74.66;100212.69;5049976;28;20178;-71
2021/06/18 05:36:20;;;;;;;4.60;4.30;;;;;;;22.31;74.29;100225.03;5050428;28;20241;-72
2021/06/18 05:38:46;;;;;;;4.70;4.40;;;;;;;22.36;75.47;100221.84;5050702;28;20228;-71
2021/06/18 05:41:11;;;;;;;4.80;4.50;;;;;;;22.40;74.87;100220.66;5050660;28;20168;-72
2021/06/18 05:43:37;;;;;;;4.20;3.90;;;;;;;22.47;76.14;100220.69;5050448;28;20189;-71
2021/06/18 05:46:02;;;;;;;5.07;4.77;;;;;;;22.58;76.70;100222.69;5050603;28;20178;-72
2021/06/18 05:48:28;;;;;;;4.63;3.90;;;;;;;22.68;75.73;100225.44;5050145;28;20210;-72
2021/06/18 05:50:54;;;;;;;4.70;4.17;;;;;;;22.78;77.58;100223.84;5050533;28;20266;-72
2021/06/18 05:53:24;;;;;;;5.17;4.77;;;;;;;22.86;77.37;100225.47;5050572;28;20171;-71
2021/06/18 05:55:49;;;;;;;5.43;5.10;;;;;;;22.85;77.67;100233.00;5051576;28;20181;-72
2021/06/18 05:58:15;;;;;;;4.83;4.53;;;;;;;22.91;77.21;100224.25;5061074;28;20183;-72
2021/06/18 06:00:41;;;;;;;5.73;5.30;;;;;;;22.93;77.51;100236.59;5070340;28;20179;-72
2021/06/18 06:03:10;;;;;;;5.63;5.23;;;;;;;22.95;76.17;100238.97;5051691;28;20179;-72
2021/06/18 06:05:37;;;;;;;5.60;5.20;;;;;;;23.01;75.51;100232.59;5050415;28;20618;-72
2021/06/18 06:08:02;;;;;;;5.07;4.63;;;;;;;23.17;75.33;100229.38;5049852;28;20182;-72
2021/06/18 06:10:28;;;;;;;4.83;4.47;;;;;;;23.27;74.80;100231.31;5049489;28;20211;-72
2021/06/18 06:12:53;;;;;;;4.83;4.53;;;;;;;23.35;73.45;100237.69;5047193;28;20176;-71
2021/06/18 06:15:18;;;;;;;5.50;5.10;;;;;;;23.35;72.46;100235.69;5049814;28;20660;-71
2021/06/18 06:17:44;;;;;;;5.03;4.67;;;;;;;23.33;75.43;100235.31;5049764;28;20548;-72
2021/06/18 06:20:10;;;;;;;5.73;5.33;;;;;;;23.29;76.23;100237.31;5049838;28;20509;-71
2021/06/18 06:22:36;;;;;;;5.30;5.00;;;;;;;23.23;76.32;100244.50;5049746;28;20690;-72
2021/06/18 06:25:02;;;;;;;5.67;5.17;;;;;;;23.39;76.33;100230.91;5049884;28;20180;-72
2021/06/18 06:27:28;;;;;;;7.00;6.03;;;;;;;23.39;75.60;100230.09;5049662;28;20175;-72
2021/06/18 06:29:53;;;;;;;5.10;4.80;;;;;;;23.35;75.55;100234.91;5049696;28;20199;-71
2021/06/18 06:32:18;;;;;;;4.97;4.67;;;;;;;23.31;75.47;100234.13;5032277;28;20229;-72
2021/06/18 06:34:44;;;;;;;5.27;4.80;;;;;;;23.24;76.01;100232.13;5050056;28;20191;-72
2021/06/18 06:37:09;;;;;;;5.30;4.93;;;;;;;23.28;75.80;100234.91;5049992;28;20175;-72
2021/06/18 06:39:35;;;;;;;5.70;5.30;;;;;;;23.37;77.03;100230.50;5050121;28;20175;-72
2021/06/18 06:42:01;;;;;;;5.67;5.17;;;;;;;23.45;75.98;100232.09;5049919;28;20423;-71
2021/06/18 06:44:27;;;;;;;5.80;5.40;;;;;;;23.57;75.51;100236.44;5049786;28;20678;-72
2021/06/18 06:46:52;;;;;;;5.77;5.27;;;;;;;23.67;76.61;100227.22;5053370;28;20171;-71
2021/06/18 06:49:18;;;;;;;5.13;4.83;;;;;;;23.74;76.34;100230.00;5053561;28;20207;-72
2021/06/18 06:51:43;;;;;;;6.00;5.50;;;;;;;23.79;76.12;100233.56;5053642;28;20195;-72
2021/06/18 06:54:08;;;;;;;6.33;5.93;;;;;;;23.87;74.97;100229.50;5053170;28;20218;-72
2021/06/18 06:56:36;;;;;;;6.20;5.70;;;;;;;23.94;75.25;100235.84;5053172;28;20641;-72
2021/06/18 06:59:01;;;;;;;7.03;6.53;;;;;;;24.06;74.72;100231.81;5052405;28;20180;-72
2021/06/18 07:01:27;;;;;;;6.97;6.40;;;;;;;24.08;73.73;100236.97;5052409;28;20187;-72
2021/06/18 07:03:52;;;;;;;5.90;5.40;;;;;;;24.16;73.38;100233.75;5053071;28;20244;-71
2021/06/18 07:06:17;;;;;;;6.00;5.60;;;;;;;24.20;74.48;100240.09;5053220;28;20663;-72
2021/06/18 07:08:43;;;;;;;5.33;4.93;;;;;;;24.26;74.31;100235.66;5053098;28;20625;-71
2021/06/18 07:11:08;;;;;;;5.40;5.00;;;;;;;24.32;73.97;100234.06;5035166;28;20195;-71
2021/06/18 07:13:34;;;;;;;4.73;4.43;;;;;;;24.37;71.93;100234.81;5053123;28;20214;-71
2021/06/18 07:15:59;;;;;;;5.63;4.80;;;;;;;24.46;72.35;100230.38;5052989;28;20537;-71
2021/06/18 07:18:25;;;;;;;5.20;4.90;;;;;;;24.66;70.52;100224.22;5053000;28;20175;-72
2021/06/18 07:20:51;;;;;;;5.80;5.40;;;;;;;24.72;70.65;100228.91;5052961;28;20171;-71
2021/06/18 07:23:17;;;;;;;8.83;5.63;;;;;;;24.76;71.19;100221.31;5052857;28;20643;-71
2021/06/18 07:25:43;;;;;;;5.03;4.70;;;;;;;24.91;71.36;100222.78;5052969;28;20185;-75
2021/06/18 07:28:09;;;;;;;5.10;4.80;;;;;;;25.09;68.32;100227.41;5052673;28;20183;-71
2021/06/18 07:30:35;;;;;;;5.00;4.60;;;;;;;25.38;69.05;100228.69;5052683;28;20221;-74
2021/06/18 07:33:02;;;;;;;4.90;4.50;;;;;;;25.56;68.10;100230.47;5034784;28;20183;-74
2021/06/18 07:35:28;;;;;;;5.60;5.10;;;;;;;25.64;68.27;100224.38;5052997;28;20839;-74
2021/06/18 07:37:54;;;;;;;6.13;5.73;;;;;;;25.72;67.18;100225.09;5052544;28;20464;-73
2021/06/18 07:40:19;;;;;;;5.47;5.07;;;;;;;25.78;67.68;100229.81;5052616;28;20179;-74
2021/06/18 07:42:46;;;;;;;5.20;4.90;;;;;;;25.83;68.36;100222.16;5034948;28;20175;-79
2021/06/18 07:45:12;;;;;;;5.63;5.20;;;;;;;25.93;68.89;100221.22;5052510;28;20171;-71
2021/06/18 07:47:41;;;;;;;4.97;4.67;;;;;;;25.89;67.29;100223.25;5052431;28;20195;-72
2021/06/18 07:50:11;;;;;;;8.30;5.10;;;;;;;25.91;68.26;100218.84;5052638;28;20537;-72
2021/06/18 07:52:37;;;;;;;5.47;5.17;;;;;;;26.04;66.84;100210.66;5034401;28;20204;-72
2021/06/18 07:55:04;;;;;;;5.37;5.07;;;;;;;26.21;68.56;100211.59;5052290;28;20214;-72
2021/06/18 07:57:30;;;;;;;6.20;5.80;;;;;;;26.18;67.26;100213.22;5051551;28;20168;-72
2021/06/18 07:59:55;;;;;;;5.93;5.43;;;;;;;26.20;66.76;100204.41;5052097;28;20175;-72
2021/06/18 08:02:20;;;;;;;6.43;5.03;;;;;;;26.33;67.16;100205.41;5052206;28;20247;-72
2021/06/18 08:04:46;;;;;;;5.33;4.97;;;;;;;26.34;66.27;100198.59;5052134;28;20199;-73
2021/06/18 08:07:11;;;;;;;5.47;4.97;;;;;;;26.44;67.00;100206.03;5052097;28;20171;-72
2021/06/18 08:09:38;;;;;;;5.63;5.13;;;;;;;26.54;67.12;100207.09;5040378;28;20495;-72
2021/06/18 08:12:04;;;;;;;5.87;5.40;;;;;;;26.56;65.85;100199.03;5064200;28;20181;-71
2021/06/18 08:14:29;;;;;;;5.80;5.43;;;;;;;26.86;64.51;100207.31;5054002;28;20492;-72
2021/06/18 08:16:55;;;;;;;5.43;5.03;;;;;;;26.85;63.97;100204.94;5070828;28;20519;-72
2021/06/18 08:19:21;;;;;;;5.53;5.17;;;;;;;26.90;64.40;100204.44;5071371;28;20183;-72
2021/06/18 08:21:46;;;;;;;5.80;5.40;;;;;;;26.88;63.43;100209.69;5071285;28;20171;-72
2021/06/18 08:24:12;;;;;;;5.60;5.30;;;;;;;26.86;65.03;100212.13;5071056;28;20231;-72
2021/06/18 08:26:37;;;;;;;5.47;5.07;;;;;;;26.95;64.75;100201.94;5052989;28;20179;-72
2021/06/18 08:29:03;;;;;;;5.03;4.63;;;;;;;27.17;66.17;100184.72;5070926;28;20210;-72
2021/06/18 08:31:28;;;;;;;5.23;4.93;;;;;;;27.45;62.70;100188.97;5071069;28;20646;-72
2021/06/18 08:33:53;;;;;;;5.57;5.27;;;;;;;27.55;63.12;100187.94;5071017;28;20175;-72
2021/06/18 08:36:19;;;;;;;5.50;5.20;;;;;;;27.67;61.20;100190.13;5070724;28;20176;-72
2021/06/18 08:38:44;;;;;;;4.93;4.63;;;;;;;27.75;61.16;100188.72;5070987;28;20202;-72
2021/06/18 08:41:10;;;;;;;5.77;5.37;;;;;;;27.92;61.99;100185.94;5070958;28;20175;-72
2021/06/18 08:43:35;;;;;;;6.00;5.60;;;;;;;28.02;60.42;100177.28;5070626;28;20171;-72
2021/06/18 08:46:02;;;;;;;5.83;5.53;;;;;;;28.26;60.70;100186.38;5070904;28;20198;-72
2021/06/18 08:48:33;;;;;;;5.00;4.70;;;;;;;28.38;60.40;100182.09;5070455;28;20535;-72
2021/06/18 08:51:00;;;;;;;5.63;5.00;;;;;;;28.43;57.90;100173.91;5069404;28;20681;-72
2021/06/18 08:53:26;;;;;;;5.20;4.77;;;;;;;28.51;56.35;100170.91;5061360;28;20188;-72
2021/06/18 08:55:54;;;;;;;6.00;5.50;;;;;;;28.60;56.70;100166.22;5052746;28;20174;-72
2021/06/18 08:58:20;;;;;;;4.90;4.50;;;;;;;28.74;58.09;100159.44;5048822;28;20617;-72
2021/06/18 09:00:47;;;;;;;5.60;5.20;;;;;;;28.82;57.20;100160.06;5048994;28;20223;-72
2021/06/18 09:03:45;;;;;;;5.40;5.10;;;;;;;28.84;55.38;100151.97;5048810;28;20174;-72
2021/06/18 09:06:36;;;;;;;4.73;4.43;;;;;;;28.93;56.11;100157.75;5048967;28;20219;-72
2021/06/18 09:09:26;;;;;;;4.23;3.97;;;;;;;29.11;55.67;100154.44;5048823;28;20300;-72
2021/06/18 09:12:01;;;;;;;4.63;4.33;;;;;;;29.27;56.14;100157.19;5050866;28;20626;-72
2021/06/18 09:14:35;;;;;;;5.83;4.53;;;;;;;29.19;54.25;100156.59;5049177;28;20659;-72
2021/06/18 09:17:06;;;;;;;4.73;4.43;;;;;;;29.20;56.00;100155.34;5050012;28;20180;-72
2021/06/18 09:19:33;;;;;;;4.20;4.00;;;;;;;29.29;54.41;100151.91;5050427;28;20640;-72
2021/06/18 09:22:16;;;;;;;4.47;4.27;;;;;;;29.49;53.29;100148.91;5082832;28;20206;-72
2021/06/18 09:24:46;;;;;;;4.43;4.13;;;;;;;29.54;53.80;100152.00;5050351;28;20179;-73
2021/06/18 09:27:12;;;;;;;4.43;4.13;;;;;;;29.70;52.46;100158.75;5049850;28;20681;-72
2021/06/18 09:29:38;;;;;;;4.90;4.50;;;;;;;29.80;54.20;100152.81;5050558;28;20203;-72
2021/06/18 09:32:06;;;;;;;4.10;3.90;;;;;;;29.86;52.75;100153.00;5050219;28;20178;-72
2021/06/18 09:34:59;;;;;;;4.00;3.80;;;;;;;29.97;55.21;100153.47;5050201;28;20198;-72
2021/06/18 09:37:38;;;;;;;4.40;4.10;;;;;;;30.15;52.48;100167.78;5047189;28;20643;-72
2021/06/18 09:40:11;;;;;;;4.10;3.90;;;;;;;30.18;50.71;100160.47;5049514;28;20184;-72
2021/06/18 09:42:59;;;;;;;4.33;4.03;;;;;;;30.26;48.97;100161.03;5044526;28;20547;-72
2021/06/18 09:45:26;;;;;;;4.30;4.00;;;;;;;30.32;51.49;100159.19;5056548;28;20196;-72
2021/06/18 09:47:52;;;;;;;5.97;3.97;;;;;;;30.37;46.95;100165.03;5068759;28;20180;-72
2021/06/18 09:50:26;;;;;;;4.70;4.40;;;;;;;30.47;46.04;100163.91;5050670;28;20202;-72
2021/06/18 09:52:53;;;;;;;4.40;4.10;;;;;;;30.43;45.76;100160.41;5050404;28;20576;-72
2021/06/18 09:55:20;;;;;;;4.43;4.03;;;;;;;30.54;45.21;100159.28;5064151;28;20645;-73
2021/06/18 09:57:53;;;;;;;5.57;5.13;;;;;;;30.65;47.78;100159.69;5048988;28;20191;-73
2021/06/18 10:00:18;;;;;;;4.50;4.20;;;;;;;30.89;50.05;100154.44;5041119;28;20206;-72
2021/06/18 10:02:55;;;;;;;4.70;4.37;;;;;;;30.98;50.26;100148.88;5058517;28;20198;-73
2021/06/18 10:05:26;;;;;;;4.47;4.20;;;;;;;31.01;50.14;100153.59;5061241;28;20245;-73
2021/06/18 10:07:53;;;;;;;4.17;3.87;;;;;;;30.91;45.23;100158.34;5050067;28;20191;-72
2021/06/18 10:10:29;;;;;;;4.07;3.87;;;;;;;31.08;43.47;100151.28;5051682;28;20212;-72
2021/06/18 10:12:56;;;;;;;4.07;3.87;;;;;;;31.18;43.49;100145.69;5054414;28;20190;-72
2021/06/18 10:15:24;;;;;;;3.70;3.50;;;;;;;31.23;44.02;100143.09;5060202;28;20182;-72
2021/06/18 10:17:51;;;;;;;3.50;3.30;;;;;;;31.37;44.90;100153.06;5065192;28;20200;-72
2021/06/18 10:20:30;;;;;;;3.10;2.90;;;;;;;31.49;41.65;100149.38;5071528;28;20187;-72
2021/06/18 10:23:04;;;;;;;3.83;3.63;;;;;;;31.68;43.52;100151.06;5069780;28;20642;-73
2021/06/18 10:25:35;;;;;;;3.37;3.17;;;;;;;31.70;41.12;100147.75;5054097;28;20640;-72
2021/06/18 10:28:06;;;;;;;3.87;3.67;;;;;;;31.60;42.48;100151.78;5053765;28;20247;-72
2021/06/18 10:30:45;;;;;;;4.20;4.00;;;;;;;31.91;42.67;100151.78;5053891;28;20238;-72
2021/06/18 10:33:33;;;;;;;4.23;4.00;;;;;;;31.63;44.84;100148.03;5053848;28;20176;-72
2021/06/18 10:38:44;;;;;;;3.93;3.73;;;;;;;31.72;43.30;100142.44;5053115;28;20173;-72
2021/06/18 10:41:12;;;;;;;3.27;3.07;;;;;;;31.94;42.95;100145.19;5053282;28;20534;-72
2021/06/18 10:43:39;;;;;;;3.70;3.50;;;;;;;31.87;41.62;100134.97;5067677;28;20183;-72
2021/06/18 10:46:07;;;;;;;3.57;3.37;;;;;;;31.86;40.69;100141.88;5048650;28;20179;-72
2021/06/18 10:48:47;;;;;;;3.90;3.70;;;;;;;31.73;41.28;100132.72;5073320;28;20250;-71
2021/06/18 10:54:04;;;;;;;3.63;3.43;;;;;;;31.93;42.18;100137.97;5033668;28;20188;-72
2021/06/18 10:56:45;;;;;;;3.80;3.60;;;;;;;32.22;40.17;100134.75;5015620;28;20408;-72
2021/06/18 10:59:25;;;;;;;3.23;3.00;;;;;;;32.34;41.99;100133.09;5033537;28;20266;-72
2021/06/18 11:01:51;;;;;;;3.63;3.43;;;;;;;32.44;39.14;100132.63;5033260;28;20180;-72
2021/06/18 11:04:36;;;;;;;3.37;3.20;;;;;;;32.02;40.58;100129.53;5041083;28;20196;-72
2021/06/18 11:07:22;;;;;;;4.00;3.80;;;;;;;32.17;43.05;100132.56;5060286;28;20243;-72
2021/06/18 11:10:09;;;;;;;4.13;3.50;;;;;;;32.25;42.75;100131.00;5032427;28;20207;-72
2021/06/18 11:12:40;;;;;;;4.27;3.97;;;;;;;32.12;40.94;100128.31;5051624;28;20176;-72
2021/06/18 11:15:21;;;;;;;3.77;3.57;;;;;;;31.91;42.59;100134.84;5050371;28;20622;-72
2021/06/18 11:17:59;;;;;;;3.87;3.67;;;;;;;31.78;43.11;100126.47;5050228;28;20256;-72
2021/06/18 11:20:49;;;;;;;3.37;3.17;;;;;;;32.09;45.83;100128.44;5052110;28;20163;-72
2021/06/18 11:23:22;;;;;;;3.67;3.47;;;;;;;32.26;44.58;100127.72;5043385;28;20587;-72
2021/06/18 11:26:15;;;;;;;3.80;3.50;;;;;;;32.59;42.23;100123.53;5052335;28;20213;-72
2021/06/18 11:28:46;;;;;;;3.43;3.23;;;;;;;32.77;41.38;100120.69;5032666;28;20216;-72
2021/06/18 11:31:17;;;;;;;3.60;3.40;;;;;;;32.73;41.07;100134.22;5052062;28;20641;-72
2021/06/18 11:33:51;;;;;;;3.37;3.17;;;;;;;32.30;40.38;100127.59;5052730;28;20578;-72
2021/06/18 11:36:26;;;;;;;3.73;3.53;;;;;;;32.00;41.58;100128.44;5052539;28;20789;-72